createdAt,value
2019-06-08T00:00:15.238Z,100113.03
2019-06-08T00:02:45.745Z,100105.32
2019-06-08T00:05:14.835Z,100092.36
2019-06-08T00:07:43.414Z,100075.09
2019-06-08T00:10:12.725Z,100064.66
2019-06-08T00:12:41.232Z,100059.60
2019-06-08T00:15:10.198Z,100046.23
2019-06-08T00:17:39.385Z,100057.94
2019-06-08T00:20:08.338Z,100073.25
2019-06-08T00:22:36.808Z,100068.58
2019-06-08T00:25:06.803Z,100081.39
2019-06-08T00:27:35.313Z,100092.94
2019-06-08T00:30:06.128Z,100086.72
2019-06-08T00:32:33.997Z,100087.41
2019-06-08T00:35:04.581Z,100093.78
2019-06-08T00:37:33.023Z,100099.34
2019-06-08T00:40:01.518Z,100101.08
2019-06-08T00:42:29.988Z,100092.91
2019-06-08T00:44:58.511Z,100083.47
2019-06-08T00:47:44.974Z,100090.16
2019-06-08T00:49:57.150Z,100104.95
2019-06-08T00:52:25.662Z,100113.25
2019-06-08T00:54:54.139Z,100111.66
2019-06-08T00:57:23.853Z,100101.66
2019-06-08T00:59:52.466Z,100108.65
2019-06-08T01:02:20.970Z,100116.39
2019-06-08T01:04:49.470Z,100111.19
2019-06-08T01:07:18.036Z,100108.00
2019-06-08T01:09:50.816Z,100131.59
2019-06-08T01:12:20.502Z,100133.66
2019-06-08T01:14:49.773Z,100128.23
2019-06-08T01:17:19.273Z,100129.89
2019-06-08T01:19:47.820Z,100133.84
2019-06-08T01:22:16.296Z,100130.69
2019-06-08T01:24:44.749Z,100131.16
2019-06-08T01:27:13.183Z,100126.67
2019-06-08T01:29:44.713Z,100142.70
2019-06-08T01:32:13.159Z,100136.41
2019-06-08T01:34:41.601Z,100142.45
2019-06-08T01:37:10.031Z,100132.95
2019-06-08T01:39:38.527Z,100140.02
2019-06-08T01:42:10.619Z,100151.69
2019-06-08T01:44:38.984Z,100154.04
2019-06-08T01:47:07.412Z,100144.67
2019-06-08T01:49:35.835Z,100137.98
2019-06-08T01:52:04.284Z,100136.41
2019-06-08T01:54:33.336Z,100138.05
2019-06-08T01:57:01.857Z,100142.13
2019-06-08T01:59:32.556Z,100146.97
2019-06-08T02:02:08.520Z,100135.69
2019-06-08T02:04:37.050Z,100138.68
2019-06-08T02:07:05.616Z,100136.15
2019-06-08T02:09:34.884Z,100137.93
2019-06-08T02:12:03.425Z,100128.37
2019-06-08T02:14:33.168Z,100120.51
2019-06-08T02:17:01.739Z,100113.45
2019-06-08T02:19:30.556Z,100105.53
2019-06-08T02:21:59.121Z,100110.31
2019-06-08T02:24:27.568Z,100111.98
2019-06-08T02:26:56.035Z,100107.78
2019-06-08T02:29:24.518Z,100112.66
2019-06-08T02:31:53.020Z,100112.92
2019-06-08T02:34:21.480Z,100112.59
2019-06-08T02:36:50.004Z,100119.10
2019-06-08T02:39:18.455Z,100118.62
2019-06-08T02:41:46.905Z,100114.34
2019-06-08T02:44:15.441Z,100122.83
2019-06-08T02:46:43.991Z,100125.37
2019-06-08T02:49:12.466Z,100133.01
2019-06-08T02:51:41.257Z,100143.50
2019-06-08T02:54:10.543Z,100136.64
2019-06-08T02:56:41.588Z,100129.63
2019-06-08T02:59:13.107Z,100120.88
2019-06-08T03:01:43.116Z,100124.90
2019-06-08T03:04:12.980Z,100129.86
2019-06-08T03:06:43.593Z,100136.22
2019-06-08T03:09:12.143Z,100146.41
2019-06-08T03:11:44.554Z,100152.66
2019-06-08T03:14:13.651Z,100167.16
2019-06-08T03:16:43.305Z,100165.38
2019-06-08T03:19:21.569Z,100155.23
2019-06-08T03:21:44.518Z,100166.11
2019-06-08T03:24:13.005Z,100174.34
2019-06-08T03:26:43.884Z,100181.02
2019-06-08T03:29:11.713Z,100192.63
2019-06-08T03:31:49.692Z,100194.45
2019-06-08T03:34:10.425Z,100206.43
2019-06-08T03:36:46.382Z,100213.06
2019-06-08T03:39:11.776Z,100218.98
2019-06-08T03:41:40.480Z,100215.58
2019-06-08T03:44:09.285Z,100198.08
2019-06-08T03:46:38.813Z,100198.20
2019-06-08T03:49:10.440Z,100198.52
2019-06-08T03:51:43.549Z,100191.62
2019-06-08T03:54:09.187Z,100194.58
2019-06-08T03:56:38.049Z,100189.78
2019-06-08T03:59:10.902Z,100192.56
2019-06-08T04:01:39.744Z,100202.05
2019-06-08T04:04:10.185Z,100188.04
2019-06-08T04:06:39.873Z,100197.76
2019-06-08T04:09:08.776Z,100205.16
2019-06-08T04:11:37.735Z,100204.15
2019-06-08T04:14:06.416Z,100202.94
2019-06-08T04:16:34.946Z,100202.25
2019-06-08T04:19:04.180Z,100203.70
2019-06-08T04:21:32.654Z,100216.58
2019-06-08T04:24:01.135Z,100228.89
2019-06-08T04:26:29.693Z,100230.30
2019-06-08T04:28:58.212Z,100227.06
2019-06-08T04:31:26.708Z,100208.62
2019-06-08T04:33:55.222Z,100213.68
2019-06-08T04:36:23.670Z,100219.66
2019-06-08T04:38:54.900Z,100215.52
2019-06-08T04:41:23.451Z,100232.97
2019-06-08T04:43:51.968Z,100233.97
2019-06-08T04:46:20.550Z,100242.17
2019-06-08T04:48:50.032Z,100237.86
2019-06-08T04:51:21.507Z,100253.18
2019-06-08T04:53:50.065Z,100262.25
2019-06-08T04:56:20.192Z,100253.65
2019-06-08T04:58:51.045Z,100248.29
2019-06-08T05:01:18.918Z,100261.37
2019-06-08T05:03:53.881Z,100264.33
2019-06-08T05:06:21.562Z,100262.88
2019-06-08T05:08:50.041Z,100255.86
2019-06-08T05:11:20.064Z,100258.61
2019-06-08T05:13:49.732Z,100265.60
2019-06-08T05:16:18.475Z,100264.20
2019-06-08T05:18:47.407Z,100263.83
2019-06-08T05:21:15.992Z,100270.72
2019-06-08T05:23:45.555Z,100273.28
2019-06-08T05:26:14.415Z,100271.88
2019-06-08T05:28:43.196Z,100279.21
2019-06-08T05:31:11.668Z,100279.47
2019-06-08T05:33:41.315Z,100270.57
2019-06-08T05:36:10.082Z,100280.28
2019-06-08T05:38:39.453Z,100278.47
2019-06-08T05:41:08.025Z,100279.63
2019-06-08T05:43:39.452Z,100293.84
2019-06-08T05:46:12.932Z,100275.03
2019-06-08T05:48:41.882Z,100294.34
2019-06-08T05:51:10.624Z,100286.98
2019-06-08T05:53:39.682Z,100293.41
2019-06-08T05:56:08.323Z,100290.00
2019-06-08T05:58:39.881Z,100301.12
2019-06-08T06:01:08.337Z,100312.78
2019-06-08T06:03:38.468Z,100305.97
2019-06-08T06:06:07.143Z,100308.77
2019-06-08T06:08:36.721Z,100311.27
2019-06-08T06:11:05.277Z,100315.55
2019-06-08T06:13:33.742Z,100308.08
2019-06-08T06:16:02.240Z,100314.71
2019-06-08T06:18:30.812Z,100315.61
2019-06-08T06:21:10.312Z,100326.55
2019-06-08T06:23:35.122Z,100319.53
2019-06-08T06:26:03.667Z,100330.31
2019-06-08T06:28:33.665Z,100327.24
2019-06-08T06:31:02.749Z,100319.45
2019-06-08T06:33:31.756Z,100337.06
2019-06-08T06:36:01.683Z,100340.51
2019-06-08T06:38:30.257Z,100335.59
2019-06-08T06:40:59.307Z,100348.00
2019-06-08T06:43:27.774Z,100346.09
2019-06-08T06:45:59.800Z,100348.44
2019-06-08T06:48:28.464Z,100353.73
2019-06-08T06:50:57.435Z,100350.52
2019-06-08T06:53:28.471Z,100361.53
2019-06-08T06:55:56.862Z,100359.91
2019-06-08T06:58:25.398Z,100355.95
2019-06-08T07:00:53.906Z,100360.55
2019-06-08T07:03:22.719Z,100371.66
2019-06-08T07:05:54.413Z,100371.66
2019-06-08T07:08:22.923Z,100378.77
2019-06-08T07:10:51.465Z,100378.25
2019-06-08T07:13:21.597Z,100400.84
2019-06-08T07:15:55.915Z,100407.03
2019-06-08T07:18:24.217Z,100404.91
2019-06-08T07:20:52.703Z,100405.59
2019-06-08T07:23:21.183Z,100407.24
2019-06-08T07:25:50.432Z,100403.86
2019-06-08T07:28:21.959Z,100421.48
2019-06-08T07:30:52.777Z,100432.89
2019-06-08T07:33:21.378Z,100436.11
2019-06-08T07:35:50.440Z,100437.31
2019-06-08T07:38:20.009Z,100447.08
2019-06-08T07:40:50.328Z,100446.85
2019-06-08T07:43:20.394Z,100452.05
2019-06-08T07:45:51.914Z,100445.08
2019-06-08T07:48:22.064Z,100473.91
2019-06-08T07:50:54.339Z,100467.02
2019-06-08T07:53:24.393Z,100483.82
2019-06-08T07:55:53.493Z,100483.75
2019-06-08T07:58:26.309Z,100475.86
2019-06-08T08:00:59.441Z,100483.20
2019-06-08T08:03:27.031Z,100491.37
2019-06-08T08:05:56.608Z,100474.56
2019-06-08T08:08:25.362Z,100495.65
2019-06-08T08:10:54.593Z,100493.28
2019-06-08T08:13:26.051Z,100490.15
2019-06-08T08:15:57.358Z,100497.61
2019-06-08T08:18:24.874Z,100500.72
2019-06-08T08:21:00.983Z,100512.64
2019-06-08T08:23:27.845Z,100507.06
2019-06-08T08:26:01.693Z,100518.37
2019-06-08T08:28:31.284Z,100509.62
2019-06-08T08:31:01.795Z,100518.31
2019-06-08T08:33:30.840Z,100522.09
2019-06-08T08:36:01.713Z,100521.05
2019-06-08T08:38:29.574Z,100521.77
2019-06-08T08:41:06.235Z,100531.84
2019-06-08T08:43:37.683Z,100525.09
2019-06-08T08:46:09.269Z,100526.76
2019-06-08T08:48:38.155Z,100512.12
2019-06-08T08:51:08.658Z,100535.30
2019-06-08T08:53:53.818Z,100539.64
2019-06-08T08:56:20.119Z,100540.78
2019-06-08T08:58:48.695Z,100536.29
2019-06-08T09:01:20.599Z,100541.98
2019-06-08T09:03:51.848Z,100540.13
2019-06-08T09:06:20.209Z,100552.07
2019-06-08T09:08:52.041Z,100555.61
2019-06-08T09:11:22.162Z,100552.72
2019-06-08T09:13:51.952Z,100562.05
2019-06-08T09:16:20.787Z,100560.13
2019-06-08T09:18:49.337Z,100555.53
2019-06-08T09:21:18.679Z,100572.97
2019-06-08T09:23:48.745Z,100564.05
2019-06-08T09:26:20.029Z,100570.84
2019-06-08T09:28:48.583Z,100579.19
2019-06-08T09:31:18.851Z,100576.78
2019-06-08T09:33:58.153Z,100575.72
2019-06-08T09:36:19.660Z,100579.00
2019-06-08T09:38:48.241Z,100575.27
2019-06-08T09:41:18.676Z,100599.16
2019-06-08T09:43:48.738Z,100589.83
2019-06-08T09:46:17.937Z,100612.38
2019-06-08T09:48:48.640Z,100607.00
2019-06-08T09:51:18.663Z,100599.37
2019-06-08T09:53:47.673Z,100600.94
2019-06-08T09:56:18.602Z,100614.55
2019-06-08T09:58:51.154Z,100614.98
2019-06-08T10:01:18.419Z,100628.09
2019-06-08T10:03:48.210Z,100623.30
2019-06-08T10:06:18.449Z,100628.27
2019-06-08T10:08:48.054Z,100634.42
2019-06-08T10:11:18.342Z,100636.59
2019-06-08T10:13:47.778Z,100631.91
2019-06-08T10:16:18.358Z,100634.67
2019-06-08T10:18:51.130Z,100633.19
2019-06-08T10:21:18.299Z,100639.28
2019-06-08T10:23:48.368Z,100635.36
2019-06-08T10:26:17.849Z,100644.87
2019-06-08T10:28:48.226Z,100654.31
2019-06-08T10:31:17.611Z,100650.83
2019-06-08T10:33:48.204Z,100654.94
2019-06-08T10:36:18.296Z,100674.28
2019-06-08T10:38:48.019Z,100664.48
2019-06-08T10:41:21.085Z,100660.50
2019-06-08T10:43:48.192Z,100653.27
2019-06-08T10:46:21.069Z,100674.44
2019-06-08T10:48:55.682Z,100673.82
2019-06-08T10:51:24.172Z,100673.05
2019-06-08T10:53:54.227Z,100671.02
2019-06-08T10:56:28.401Z,100682.83
2019-06-08T10:58:57.358Z,100684.39
2019-06-08T11:01:28.246Z,100686.42
2019-06-08T11:03:58.418Z,100672.65
2019-06-08T11:06:39.930Z,100682.51
2019-06-08T11:09:12.674Z,100683.10
2019-06-08T11:11:41.485Z,100681.65
2019-06-08T11:14:12.760Z,100688.49
2019-06-08T11:16:40.076Z,100689.08
2019-06-08T11:19:12.875Z,100697.73
2019-06-08T11:21:43.785Z,100690.48
2019-06-08T11:24:23.747Z,100689.18
2019-06-08T11:26:44.383Z,100695.72
2019-06-08T11:29:13.926Z,100702.04
2019-06-08T11:31:43.772Z,100705.05
2019-06-08T11:34:12.265Z,100707.66
2019-06-08T11:36:43.035Z,100710.67
2019-06-08T11:39:12.715Z,100712.09
2019-06-08T11:41:40.905Z,100729.86
2019-06-08T11:44:14.913Z,100734.25
2019-06-08T11:46:44.698Z,100719.06
2019-06-08T11:49:15.006Z,100720.42
2019-06-08T11:51:43.385Z,100734.30
2019-06-08T11:54:27.341Z,100716.59
2019-06-08T11:56:45.216Z,100726.03
2019-06-08T11:59:14.575Z,100712.94
2019-06-08T12:01:44.643Z,100737.88
2019-06-08T12:04:13.192Z,100729.39
2019-06-08T12:06:42.796Z,100714.05
2019-06-08T12:09:12.746Z,100715.44
2019-06-08T12:11:44.218Z,100711.51
2019-06-08T12:14:14.230Z,100718.71
2019-06-08T12:16:44.382Z,100726.38
2019-06-08T12:19:16.646Z,100729.14
2019-06-08T12:21:43.137Z,100734.72
2019-06-08T12:24:12.368Z,100735.75
2019-06-08T12:26:41.144Z,100741.28
2019-06-08T12:29:12.770Z,100744.38
2019-06-08T12:31:40.367Z,100743.27
2019-06-08T12:34:09.241Z,100738.76
2019-06-08T12:36:40.148Z,100755.98
2019-06-08T12:39:08.076Z,100748.00
2019-06-08T12:41:37.740Z,100758.59
2019-06-08T12:44:11.757Z,100749.30
2019-06-08T12:46:41.360Z,100755.05
2019-06-08T12:49:14.680Z,100745.55
2019-06-08T12:51:50.642Z,100769.47
2019-06-08T12:54:19.339Z,100766.50
2019-06-08T12:56:47.977Z,100757.95
2019-06-08T12:59:20.880Z,100754.91
2019-06-08T13:01:48.455Z,100759.16
2019-06-08T13:04:18.776Z,100752.88
2019-06-08T13:06:50.041Z,100753.53
2019-06-08T13:09:20.657Z,100765.61
2019-06-08T13:11:50.730Z,100772.00
2019-06-08T13:14:20.652Z,100770.77
2019-06-08T13:16:52.973Z,100780.92
2019-06-08T13:19:20.450Z,100781.11
2019-06-08T13:21:48.961Z,100772.39
2019-06-08T13:24:17.655Z,100777.95
2019-06-08T13:26:50.436Z,100785.96
2019-06-08T13:29:22.504Z,100788.66
2019-06-08T13:31:51.964Z,100791.48
2019-06-08T13:34:23.942Z,100798.32
2019-06-08T13:36:50.743Z,100800.52
2019-06-08T13:39:21.673Z,100798.80
2019-06-08T13:41:52.579Z,100799.91
2019-06-08T13:44:22.131Z,100799.08
2019-06-08T13:46:55.011Z,100791.39
2019-06-08T13:49:29.741Z,100788.31
2019-06-08T13:51:59.949Z,100791.97
2019-06-08T13:54:31.225Z,100784.56
2019-06-08T13:56:59.682Z,100789.73
2019-06-08T13:59:30.757Z,100781.97
2019-06-08T14:01:58.837Z,100794.75
2019-06-08T14:04:27.356Z,100786.25
2019-06-08T14:06:58.211Z,100781.58
2019-06-08T14:09:31.478Z,100781.86
2019-06-08T14:11:58.896Z,100796.81
2019-06-08T14:14:29.697Z,100789.22
2019-06-08T14:17:01.166Z,100774.19
2019-06-08T14:19:31.569Z,100777.20
2019-06-08T14:21:59.801Z,100778.31
2019-06-08T14:24:34.118Z,100774.61
2019-06-08T14:27:00.859Z,100790.78
2019-06-08T14:29:29.290Z,100787.75
2019-06-08T14:31:58.775Z,100786.63
2019-06-08T14:34:31.256Z,100782.48
2019-06-08T14:36:59.890Z,100784.68
2019-06-08T14:39:32.905Z,100788.47
2019-06-08T14:42:01.478Z,100790.36
2019-06-08T14:44:32.017Z,100797.96
2019-06-08T14:47:01.767Z,100802.59
2019-06-08T14:49:34.858Z,100796.47
2019-06-08T14:52:01.944Z,100800.01
2019-06-08T14:54:34.983Z,100804.02
2019-06-08T14:57:02.178Z,100777.79
2019-06-08T14:59:32.326Z,100776.33
2019-06-08T15:02:00.776Z,100791.73
2019-06-08T15:04:36.310Z,100783.62
2019-06-08T15:06:59.662Z,100792.52
2019-06-08T15:09:28.186Z,100776.55
2019-06-08T15:11:58.258Z,100783.27
2019-06-08T15:14:34.848Z,100799.37
2019-06-08T15:17:01.234Z,100800.28
2019-06-08T15:19:32.409Z,100796.44
2019-06-08T15:22:00.098Z,100792.64
2019-06-08T15:24:30.656Z,100783.62
2019-06-08T15:27:01.624Z,100773.84
2019-06-08T15:29:31.338Z,100792.98
2019-06-08T15:32:00.654Z,100785.80
2019-06-08T15:34:31.407Z,100786.97
2019-06-08T15:36:59.312Z,100786.37
2019-06-08T15:39:34.176Z,100794.48
2019-06-08T15:42:02.788Z,100788.16
2019-06-08T15:44:32.426Z,100791.30
2019-06-08T15:47:01.530Z,100792.75
2019-06-08T15:49:31.892Z,100794.91
2019-06-08T15:52:02.233Z,100794.19
2019-06-08T15:54:36.195Z,100790.47
2019-06-08T15:57:02.294Z,100792.14
2019-06-08T15:59:34.127Z,100800.74
2019-06-08T16:02:01.154Z,100799.91
2019-06-08T16:04:30.249Z,100796.35
2019-06-08T16:07:00.351Z,100805.69
2019-06-08T16:09:29.926Z,100798.56
2019-06-08T16:11:59.596Z,100790.80
2019-06-08T16:14:28.842Z,100786.63
2019-06-08T16:16:57.413Z,100801.25
2019-06-08T16:19:29.680Z,100800.53
2019-06-08T16:21:59.167Z,100806.89
2019-06-08T16:24:27.813Z,100810.93
2019-06-08T16:26:56.234Z,100817.05
2019-06-08T16:29:27.082Z,100816.53
2019-06-08T16:31:55.480Z,100839.97
2019-06-08T16:34:25.181Z,100844.66
2019-06-08T16:36:53.719Z,100841.67
2019-06-08T16:39:22.197Z,100832.19
2019-06-08T16:41:50.727Z,100837.19
2019-06-08T16:44:19.302Z,100833.37
2019-06-08T16:46:47.766Z,100828.96
2019-06-08T16:49:16.245Z,100834.59
2019-06-08T16:51:44.699Z,100836.46
2019-06-08T16:54:13.164Z,100830.05
2019-06-08T16:56:41.690Z,100835.55
2019-06-08T16:59:10.153Z,100838.66
2019-06-08T17:01:41.025Z,100840.50
2019-06-08T17:04:09.555Z,100851.21
2019-06-08T17:06:38.027Z,100858.48
2019-06-08T17:09:07.644Z,100853.41
2019-06-08T17:11:36.118Z,100853.78
2019-06-08T17:14:06.107Z,100857.17
2019-06-08T17:16:36.357Z,100870.41
2019-06-08T17:19:06.449Z,100911.19
2019-06-08T17:21:36.255Z,100917.37
2019-06-08T17:24:06.353Z,100942.34
2019-06-08T17:26:34.925Z,100937.12
2019-06-08T17:29:04.450Z,100936.89
2019-06-08T17:31:37.139Z,100939.73
2019-06-08T17:34:07.460Z,100938.03
2019-06-08T17:36:36.514Z,100942.66
2019-06-08T17:39:06.834Z,100948.39
2019-06-08T17:41:36.092Z,100957.15
2019-06-08T17:44:05.165Z,100959.89
2019-06-08T17:46:36.527Z,100960.38
2019-06-08T17:49:08.016Z,100971.95
2019-06-08T17:51:37.293Z,100960.98
2019-06-08T17:54:07.519Z,100971.47
2019-06-08T17:56:37.145Z,100967.92
2019-06-08T17:59:05.940Z,100958.78
2019-06-08T18:01:35.845Z,100955.95
2019-06-08T18:04:04.437Z,100961.42
2019-06-08T18:06:33.641Z,100973.73
2019-06-08T18:09:04.751Z,100983.66
2019-06-08T18:11:33.927Z,100981.52
2019-06-08T18:14:02.474Z,100977.58
2019-06-08T18:16:30.925Z,100989.11
2019-06-08T18:18:59.413Z,100992.48
2019-06-08T18:21:29.523Z,100992.09
2019-06-08T18:23:57.987Z,100980.48
2019-06-08T18:26:28.094Z,100985.57
2019-06-08T18:28:58.194Z,100980.25
2019-06-08T18:31:27.642Z,100978.10
2019-06-08T18:33:57.924Z,100973.22
2019-06-08T18:36:27.620Z,100964.61
2019-06-08T18:38:58.152Z,100978.63
2019-06-08T18:41:27.165Z,100963.33
2019-06-08T18:43:58.175Z,100962.60
2019-06-08T18:46:27.187Z,100956.31
2019-06-08T18:48:57.854Z,100963.17
2019-06-08T18:51:30.444Z,100966.30
2019-06-08T18:54:08.493Z,100968.36
2019-06-08T18:56:29.101Z,100970.34
2019-06-08T18:58:58.326Z,100970.59
2019-06-08T19:01:27.552Z,100968.18
2019-06-08T19:04:04.973Z,100976.51
2019-06-08T19:06:34.232Z,100971.23
2019-06-08T19:09:03.227Z,100981.56
2019-06-08T19:11:31.706Z,100981.95
2019-06-08T19:14:00.633Z,100989.70
2019-06-08T19:16:29.082Z,100993.69
2019-06-08T19:18:59.242Z,100994.91
2019-06-08T19:21:28.358Z,101005.59
2019-06-08T19:23:57.007Z,101006.73
2019-06-08T19:26:28.396Z,101003.52
2019-06-08T19:28:57.848Z,101005.68
2019-06-08T19:31:27.623Z,101013.27
2019-06-08T19:33:58.113Z,101021.98
2019-06-08T19:36:28.394Z,101026.19
2019-06-08T19:38:57.695Z,101017.46
2019-06-08T19:41:28.335Z,101019.71
2019-06-08T19:43:58.429Z,101022.53
2019-06-08T19:46:27.155Z,101030.34
2019-06-08T19:48:58.977Z,101032.58
2019-06-08T19:51:30.856Z,101040.94
2019-06-08T19:53:59.341Z,101044.07
2019-06-08T19:56:29.469Z,101052.14
2019-06-08T19:59:04.078Z,101050.52
2019-06-08T20:01:28.435Z,101048.98
2019-06-08T20:03:58.004Z,101050.34
2019-06-08T20:06:27.842Z,101050.89
2019-06-08T20:08:57.583Z,101057.81
2019-06-08T20:11:26.126Z,101056.31
2019-06-08T20:13:54.567Z,101060.21
2019-06-08T20:16:23.101Z,101062.03
2019-06-08T20:18:52.913Z,101061.53
2019-06-08T20:21:21.486Z,101064.56
2019-06-08T20:23:50.930Z,101064.08
2019-06-08T20:26:19.535Z,101069.95
2019-06-08T20:28:51.283Z,101069.27
2019-06-08T20:31:19.238Z,101065.80
2019-06-08T20:33:50.277Z,101070.30
2019-06-08T20:36:19.363Z,101068.33
2019-06-08T20:38:48.942Z,101069.15
2019-06-08T20:41:20.396Z,101068.83
2019-06-08T20:43:51.710Z,101066.66
2019-06-08T20:46:22.323Z,101074.05
2019-06-08T20:48:51.985Z,101072.86
2019-06-08T20:51:21.092Z,101075.55
2019-06-08T20:53:50.850Z,101080.73
2019-06-08T20:56:20.848Z,101077.56
2019-06-08T20:58:50.967Z,101084.12
2019-06-08T21:01:21.174Z,101079.77
2019-06-08T21:03:51.235Z,101085.46
2019-06-08T21:06:23.667Z,101086.12
2019-06-08T21:08:53.233Z,101083.77
2019-06-08T21:11:27.155Z,101085.60
2019-06-08T21:13:55.632Z,101082.09
2019-06-08T21:16:24.094Z,101088.14
2019-06-08T21:18:52.986Z,101086.28
2019-06-08T21:21:23.965Z,101086.62
2019-06-08T21:23:54.251Z,101082.27
2019-06-08T21:26:22.976Z,101092.14
2019-06-08T21:28:55.542Z,101091.48
2019-06-08T21:31:24.607Z,101088.97
2019-06-08T21:33:54.563Z,101093.32
2019-06-08T21:36:23.335Z,101091.14
2019-06-08T21:38:59.401Z,101089.12
2019-06-08T21:41:27.883Z,101096.50
2019-06-08T21:44:01.881Z,101096.80
2019-06-08T21:46:29.214Z,101096.99
2019-06-08T21:49:00.296Z,101087.78
2019-06-08T21:51:27.955Z,101088.47
2019-06-08T21:53:58.808Z,101095.81
2019-06-08T21:56:28.078Z,101095.47
2019-06-08T21:59:00.942Z,101096.84
2019-06-08T22:01:31.996Z,101094.13
2019-06-08T22:04:00.465Z,101100.17
2019-06-08T22:06:28.949Z,101092.83
2019-06-08T22:09:00.841Z,101104.52
2019-06-08T22:11:27.626Z,101097.83
2019-06-08T22:13:58.956Z,101095.50
2019-06-08T22:16:27.498Z,101100.02
2019-06-08T22:18:58.233Z,101103.00
2019-06-08T22:21:28.094Z,101096.65
2019-06-08T22:23:58.175Z,101107.51
2019-06-08T22:26:28.248Z,101108.34
2019-06-08T22:28:58.368Z,101117.41
2019-06-08T22:31:29.949Z,101113.39
2019-06-08T22:34:00.321Z,101119.73
2019-06-08T22:36:29.899Z,101125.23
2019-06-08T22:39:00.657Z,101129.44
2019-06-08T22:41:28.677Z,101129.25
2019-06-08T22:43:59.090Z,101138.12
2019-06-08T22:46:27.388Z,101131.08
2019-06-08T22:48:59.513Z,101133.59
2019-06-08T22:51:27.661Z,101132.61
2019-06-08T22:53:58.929Z,101129.59
2019-06-08T22:56:28.328Z,101132.27
2019-06-08T22:59:00.552Z,101131.28
2019-06-08T23:01:27.835Z,101133.26
2019-06-08T23:03:59.355Z,101136.58
2019-06-08T23:06:28.065Z,101132.73
2019-06-08T23:08:59.754Z,101138.72
2019-06-08T23:11:28.409Z,101135.36
2019-06-08T23:13:59.587Z,101139.20
2019-06-08T23:16:27.343Z,101141.52
2019-06-08T23:18:57.664Z,101138.69
2019-06-08T23:21:27.508Z,101148.22
2019-06-08T23:23:59.340Z,101140.45
2019-06-08T23:26:29.550Z,101146.30
2019-06-08T23:28:58.133Z,101151.14
2019-06-08T23:31:29.068Z,101150.44
2019-06-08T23:34:00.282Z,101156.46
2019-06-08T23:36:47.148Z,101154.92
2019-06-08T23:39:01.093Z,101152.09
2019-06-08T23:41:29.625Z,101150.02
2019-06-08T23:43:59.530Z,101154.31
2019-06-08T23:46:28.086Z,101144.97
2019-06-08T23:48:58.895Z,101152.28
2019-06-08T23:51:27.516Z,101150.93
2019-06-08T23:53:58.304Z,101149.22
2019-06-08T23:56:27.765Z,101153.20
2019-06-08T23:58:56.420Z,101150.68
